Terminal Aerodrome Forecast
Issued by NWS Tampa Bay Area, FL

Home | Current Version | Previous Version | Text Only | Print | Product List | Glossary On
Versions: 1 2 3 4 5 6 7 8 9 10 11 12
000
FTUS42 KTBW 011100
TAFSRQ
TAF
KSRQ 011125Z 0112/0212 10008KT P6SM SCT250
     FM011500 14014G22KT P6SM SCT250
     FM011800 17014G22KT P6SM FEW050 SCT250
     FM012300 16009KT P6SM FEW050 SCT250
     FM020600 16009KT P6SM SCT015 BKN100=

USA.gov is the U.S. government's official web portal to all federal, state and local government web resources and services.